FAB2315 SBSJ-SBRJ
Flight info
| Callsign | FAB2315 |
|---|---|
| Flight time | 0h 57m |
| Altitude | 13500 |
| Route | UMBAD DCT ASALU |
| Aircraft | E110/L-SDFGHRY/S |
Departure
| Time | 2026-04-23 20:25 |
|---|---|
| Airport | Professor Urbano Ernesto Stumpf Airport (SBSJ) |
Arrival
| Time | 2026-04-23 21:22 |
|---|---|
| Airport | Santos Dumont Airport (SBRJ) |
| Time | Latitude | Longitude | Altitude | Speed | Heading |
|---|---|---|---|---|---|
| 2026-04-23 20:11 | -23.22440 | -45.86296 | 2028 ft | 0 kts | 315° |
| 2026-04-23 20:18 | -23.22438 | -45.86298 | 2061 ft | 2 kts | 315° |
| 2026-04-23 20:18 | -23.22436 | -45.86312 | 2061 ft | 3 kts | 251° |
| 2026-04-23 20:18 | -23.22460 | -45.86339 | 2061 ft | 7 kts | 223° |
| 2026-04-23 20:18 | -23.22462 | -45.86395 | 2061 ft | 10 kts | 299° |
| 2026-04-23 20:19 | -23.22409 | -45.86460 | 2061 ft | 13 kts | 315° |
| 2026-04-23 20:19 | -23.22339 | -45.86536 | 2060 ft | 16 kts | 311° |
| 2026-04-23 20:19 | -23.22256 | -45.86628 | 2060 ft | 18 kts | 314° |
| 2026-04-23 20:19 | -23.22160 | -45.86732 | 2060 ft | 21 kts | 317° |
| 2026-04-23 20:20 | -23.22069 | -45.86861 | 2058 ft | 23 kts | 307° |
| 2026-04-23 20:20 | -23.21967 | -45.87020 | 2053 ft | 27 kts | 306° |
| 2026-04-23 20:20 | -23.21918 | -45.87115 | 2052 ft | 7 kts | 259° |
| 2026-04-23 20:20 | -23.21918 | -45.87119 | 2052 ft | 0 kts | 256° |
| 2026-04-23 20:22 | -23.21918 | -45.87120 | 2052 ft | 1 kts | 256° |
| 2026-04-23 20:23 | -23.21924 | -45.87139 | 2051 ft | 3 kts | 229° |
| 2026-04-23 20:23 | -23.21951 | -45.87166 | 2051 ft | 7 kts | 213° |
| 2026-04-23 20:23 | -23.21989 | -45.87169 | 2050 ft | 0 kts | 136° |
| 2026-04-23 20:24 | -23.21996 | -45.87162 | 2050 ft | 11 kts | 136° |
| 2026-04-23 20:24 | -23.22246 | -45.86884 | 2049 ft | 89 kts | 134° |
| 2026-04-23 20:24 | -23.22811 | -45.86266 | 2229 ft | 126 kts | 134° |
| 2026-04-23 20:24 | -23.23464 | -45.85517 | 2617 ft | 152 kts | 133° |
| 2026-04-23 20:25 | -23.24056 | -45.84537 | 3149 ft | 156 kts | 101° |
| 2026-04-23 20:25 | -23.23733 | -45.83418 | 3657 ft | 170 kts | 51° |
| 2026-04-23 20:25 | -23.22804 | -45.82524 | 3883 ft | 188 kts | 46° |
| 2026-04-23 20:25 | -23.22000 | -45.81312 | 3808 ft | 207 kts | 65° |
| 2026-04-23 20:26 | -23.21346 | -45.79893 | 3976 ft | 209 kts | 66° |
| 2026-04-23 20:26 | -23.20781 | -45.78459 | 4297 ft | 204 kts | 75° |
| 2026-04-23 20:26 | -23.20484 | -45.76957 | 4610 ft | 202 kts | 85° |
| 2026-04-23 20:26 | -23.20452 | -45.75448 | 4997 ft | 198 kts | 90° |
| 2026-04-23 20:27 | -23.20511 | -45.73963 | 5376 ft | 196 kts | 98° |
| 2026-04-23 20:27 | -23.20863 | -45.72537 | 5761 ft | 195 kts | 104° |
| 2026-04-23 20:27 | -23.21107 | -45.71100 | 6144 ft | 193 kts | 90° |
| 2026-04-23 20:27 | -23.21019 | -45.69658 | 6530 ft | 191 kts | 80° |
| 2026-04-23 20:28 | -23.20837 | -45.68229 | 6905 ft | 190 kts | 81° |
| 2026-04-23 20:28 | -23.20726 | -45.67283 | 7144 ft | 191 kts | 82° |
| 2026-04-23 20:28 | -23.20568 | -45.65861 | 7519 ft | 188 kts | 82° |
| 2026-04-23 20:28 | -23.20362 | -45.63990 | 8005 ft | 187 kts | 82° |
| 2026-04-23 20:29 | -23.20209 | -45.62592 | 8392 ft | 186 kts | 82° |
| 2026-04-23 20:29 | -23.20054 | -45.61207 | 8781 ft | 183 kts | 83° |
| 2026-04-23 20:29 | -23.19951 | -45.60283 | 9049 ft | 181 kts | 83° |
| 2026-04-23 20:29 | -23.19801 | -45.58925 | 9448 ft | 180 kts | 83° |
| 2026-04-23 20:30 | -23.19601 | -45.57152 | 9977 ft | 177 kts | 84° |
| 2026-04-23 20:30 | -23.19363 | -45.54973 | 10582 ft | 173 kts | 84° |
| 2026-04-23 20:30 | -23.19218 | -45.53681 | 10949 ft | 172 kts | 84° |
| 2026-04-23 20:31 | -23.19074 | -45.52403 | 11319 ft | 169 kts | 83° |
| 2026-04-23 20:31 | -23.18935 | -45.51143 | 11698 ft | 167 kts | 84° |
| 2026-04-23 20:31 | -23.18797 | -45.49900 | 12074 ft | 164 kts | 83° |
| 2026-04-23 20:31 | -23.18661 | -45.48676 | 12462 ft | 162 kts | 84° |
| 2026-04-23 20:32 | -23.18525 | -45.47465 | 12853 ft | 160 kts | 84° |
| 2026-04-23 20:32 | -23.18392 | -45.46270 | 13241 ft | 158 kts | 84° |
| 2026-04-23 20:32 | -23.18260 | -45.45094 | 13591 ft | 159 kts | 84° |
| 2026-04-23 20:32 | -23.18121 | -45.43828 | 13605 ft | 178 kts | 84° |
| 2026-04-23 20:33 | -23.17969 | -45.42442 | 13610 ft | 191 kts | 84° |
| 2026-04-23 20:33 | -23.17804 | -45.40973 | 13615 ft | 199 kts | 84° |
| 2026-04-23 20:33 | -23.17633 | -45.39452 | 13615 ft | 205 kts | 84° |
| 2026-04-23 20:33 | -23.17460 | -45.37916 | 13623 ft | 210 kts | 84° |
| 2026-04-23 20:34 | -23.17279 | -45.36309 | 13622 ft | 213 kts | 84° |
| 2026-04-23 20:34 | -23.17099 | -45.34702 | 13622 ft | 215 kts | 84° |
| 2026-04-23 20:34 | -23.16921 | -45.33108 | 13623 ft | 216 kts | 84° |
| 2026-04-23 20:34 | -23.16738 | -45.31483 | 13624 ft | 217 kts | 84° |
| 2026-04-23 20:35 | -23.16553 | -45.29854 | 13625 ft | 218 kts | 84° |
| 2026-04-23 20:35 | -23.16370 | -45.28222 | 13627 ft | 218 kts | 84° |
| 2026-04-23 20:35 | -23.16185 | -45.26588 | 13625 ft | 218 kts | 84° |
| 2026-04-23 20:35 | -23.16000 | -45.24946 | 13630 ft | 218 kts | 84° |
| 2026-04-23 20:36 | -23.15814 | -45.23303 | 13630 ft | 219 kts | 84° |
| 2026-04-23 20:36 | -23.15629 | -45.21660 | 13635 ft | 219 kts | 84° |
| 2026-04-23 20:36 | -23.15445 | -45.20037 | 13634 ft | 219 kts | 84° |
| 2026-04-23 20:36 | -23.15258 | -45.18395 | 13635 ft | 219 kts | 84° |
| 2026-04-23 20:37 | -23.15072 | -45.16748 | 13636 ft | 219 kts | 84° |
| 2026-04-23 20:37 | -23.14886 | -45.15109 | 13637 ft | 218 kts | 84° |
| 2026-04-23 20:37 | -23.14700 | -45.13476 | 13642 ft | 218 kts | 84° |
| 2026-04-23 20:37 | -23.14513 | -45.11838 | 13641 ft | 218 kts | 84° |
| 2026-04-23 20:38 | -23.14327 | -45.10202 | 13642 ft | 218 kts | 84° |
| 2026-04-23 20:38 | -23.14140 | -45.08561 | 13643 ft | 218 kts | 84° |
| 2026-04-23 20:38 | -23.13953 | -45.06921 | 13642 ft | 218 kts | 84° |
| 2026-04-23 20:38 | -23.13768 | -45.05304 | 13647 ft | 218 kts | 84° |
| 2026-04-23 20:39 | -23.13581 | -45.03669 | 13643 ft | 218 kts | 84° |
| 2026-04-23 20:39 | -23.13393 | -45.02029 | 13646 ft | 218 kts | 84° |
| 2026-04-23 20:39 | -23.13207 | -45.00393 | 13650 ft | 218 kts | 84° |
| 2026-04-23 20:39 | -23.13019 | -44.98752 | 13647 ft | 218 kts | 84° |
| 2026-04-23 20:40 | -23.12831 | -44.97115 | 13648 ft | 219 kts | 84° |
| 2026-04-23 20:40 | -23.12642 | -44.95471 | 13648 ft | 219 kts | 84° |
| 2026-04-23 20:40 | -23.12453 | -44.93828 | 13649 ft | 219 kts | 84° |
| 2026-04-23 20:40 | -23.12264 | -44.92184 | 13647 ft | 219 kts | 84° |
| 2026-04-23 20:41 | -23.12075 | -44.90546 | 13647 ft | 219 kts | 84° |
| 2026-04-23 20:41 | -23.11887 | -44.88927 | 13651 ft | 219 kts | 84° |
| 2026-04-23 20:41 | -23.11699 | -44.87284 | 13650 ft | 219 kts | 84° |
| 2026-04-23 20:41 | -23.11509 | -44.85638 | 13650 ft | 219 kts | 83° |
| 2026-04-23 20:42 | -23.11319 | -44.83992 | 13647 ft | 220 kts | 84° |
| 2026-04-23 20:42 | -23.11128 | -44.82348 | 13644 ft | 220 kts | 84° |
| 2026-04-23 20:42 | -23.10938 | -44.80702 | 13644 ft | 220 kts | 84° |
| 2026-04-23 20:42 | -23.10747 | -44.79051 | 13647 ft | 220 kts | 84° |
| 2026-04-23 20:43 | -23.10555 | -44.77403 | 13647 ft | 220 kts | 84° |
| 2026-04-23 20:43 | -23.10363 | -44.75750 | 13647 ft | 220 kts | 84° |
| 2026-04-23 20:43 | -23.10171 | -44.74097 | 13648 ft | 221 kts | 84° |
| 2026-04-23 20:43 | -23.09978 | -44.72440 | 13645 ft | 220 kts | 84° |
| 2026-04-23 20:44 | -23.09786 | -44.70790 | 13641 ft | 220 kts | 84° |
| 2026-04-23 20:44 | -23.09594 | -44.69141 | 13645 ft | 220 kts | 84° |
| 2026-04-23 20:44 | -23.09405 | -44.67515 | 13644 ft | 220 kts | 84° |
| 2026-04-23 20:44 | -23.09212 | -44.65869 | 13643 ft | 219 kts | 84° |
| 2026-04-23 20:45 | -23.09020 | -44.64226 | 13645 ft | 219 kts | 84° |
| 2026-04-23 20:45 | -23.08828 | -44.62581 | 13644 ft | 219 kts | 84° |
| 2026-04-23 20:45 | -23.08635 | -44.60938 | 13641 ft | 220 kts | 84° |
| 2026-04-23 20:45 | -23.08442 | -44.59291 | 13643 ft | 219 kts | 84° |
| 2026-04-23 20:46 | -23.08250 | -44.57649 | 13641 ft | 220 kts | 84° |
| 2026-04-23 20:46 | -23.08057 | -44.56003 | 13638 ft | 219 kts | 84° |
| 2026-04-23 20:46 | -23.07863 | -44.54360 | 13639 ft | 219 kts | 84° |
| 2026-04-23 20:46 | -23.07669 | -44.52712 | 13640 ft | 220 kts | 84° |
| 2026-04-23 20:47 | -23.07476 | -44.51064 | 13636 ft | 220 kts | 84° |
| 2026-04-23 20:47 | -23.07282 | -44.49419 | 13637 ft | 220 kts | 84° |
| 2026-04-23 20:47 | -23.07090 | -44.47793 | 13638 ft | 220 kts | 84° |
| 2026-04-23 20:47 | -23.06893 | -44.46125 | 13635 ft | 220 kts | 84° |
| 2026-04-23 20:48 | -23.06701 | -44.44497 | 13636 ft | 220 kts | 84° |
| 2026-04-23 20:48 | -23.06506 | -44.42852 | 13634 ft | 220 kts | 84° |
| 2026-04-23 20:48 | -23.06310 | -44.41200 | 13634 ft | 220 kts | 84° |
| 2026-04-23 20:48 | -23.06116 | -44.39555 | 13634 ft | 220 kts | 84° |
| 2026-04-23 20:49 | -23.05920 | -44.37906 | 13633 ft | 220 kts | 84° |
| 2026-04-23 20:49 | -23.05724 | -44.36257 | 13633 ft | 220 kts | 84° |
| 2026-04-23 20:49 | -23.05529 | -44.34607 | 13635 ft | 221 kts | 84° |
| 2026-04-23 20:49 | -23.05332 | -44.32954 | 13636 ft | 220 kts | 84° |
| 2026-04-23 20:50 | -23.05136 | -44.31304 | 13635 ft | 220 kts | 84° |
| 2026-04-23 20:50 | -23.04938 | -44.29651 | 13633 ft | 220 kts | 84° |
| 2026-04-23 20:50 | -23.04742 | -44.28002 | 13630 ft | 220 kts | 84° |
| 2026-04-23 20:50 | -23.04545 | -44.26348 | 13629 ft | 220 kts | 84° |
| 2026-04-23 20:51 | -23.04350 | -44.24720 | 13629 ft | 220 kts | 84° |
| 2026-04-23 20:51 | -23.04154 | -44.23075 | 13625 ft | 220 kts | 84° |
| 2026-04-23 20:51 | -23.03956 | -44.21427 | 13627 ft | 220 kts | 84° |
| 2026-04-23 20:51 | -23.03759 | -44.19773 | 13627 ft | 220 kts | 84° |
| 2026-04-23 20:52 | -23.03561 | -44.18121 | 13627 ft | 221 kts | 84° |
| 2026-04-23 20:52 | -23.03362 | -44.16469 | 13625 ft | 221 kts | 84° |
| 2026-04-23 20:52 | -23.03164 | -44.14818 | 13630 ft | 220 kts | 84° |
| 2026-04-23 20:52 | -23.02966 | -44.13167 | 13630 ft | 221 kts | 84° |
| 2026-04-23 20:53 | -23.02766 | -44.11514 | 13623 ft | 221 kts | 84° |
| 2026-04-23 20:53 | -23.02568 | -44.09864 | 13620 ft | 221 kts | 84° |
| 2026-04-23 20:53 | -23.02368 | -44.08211 | 13622 ft | 220 kts | 84° |
| 2026-04-23 20:53 | -23.02169 | -44.06557 | 13620 ft | 221 kts | 84° |
| 2026-04-23 20:54 | -23.01970 | -44.04909 | 13615 ft | 221 kts | 84° |
| 2026-04-23 20:54 | -23.01772 | -44.03278 | 13612 ft | 220 kts | 83° |
| 2026-04-23 20:54 | -23.01572 | -44.01631 | 13607 ft | 220 kts | 84° |
| 2026-04-23 20:54 | -23.01375 | -43.99984 | 13605 ft | 220 kts | 84° |
| 2026-04-23 20:55 | -23.01175 | -43.98335 | 13606 ft | 220 kts | 84° |
| 2026-04-23 20:55 | -23.00975 | -43.96686 | 13602 ft | 220 kts | 84° |
| 2026-04-23 20:55 | -23.00775 | -43.95038 | 13599 ft | 220 kts | 84° |
| 2026-04-23 20:55 | -23.00574 | -43.93386 | 13595 ft | 220 kts | 84° |
| 2026-04-23 20:56 | -23.00374 | -43.91736 | 13592 ft | 220 kts | 84° |
| 2026-04-23 20:56 | -23.00173 | -43.90087 | 13588 ft | 220 kts | 84° |
| 2026-04-23 20:56 | -22.99971 | -43.88435 | 13589 ft | 220 kts | 84° |
| 2026-04-23 20:56 | -22.99770 | -43.86784 | 13583 ft | 220 kts | 84° |
| 2026-04-23 20:57 | -22.99569 | -43.85136 | 13582 ft | 220 kts | 84° |
| 2026-04-23 20:57 | -22.99367 | -43.83484 | 13578 ft | 220 kts | 84° |
| 2026-04-23 20:57 | -22.99165 | -43.81832 | 13577 ft | 220 kts | 84° |
| 2026-04-23 20:57 | -22.98966 | -43.80204 | 13576 ft | 220 kts | 84° |
| 2026-04-23 20:58 | -22.98764 | -43.78554 | 13575 ft | 220 kts | 84° |
| 2026-04-23 20:58 | -22.98561 | -43.76899 | 13574 ft | 220 kts | 84° |
| 2026-04-23 20:58 | -22.98360 | -43.75252 | 13576 ft | 220 kts | 84° |
| 2026-04-23 20:58 | -22.98157 | -43.73603 | 13574 ft | 220 kts | 84° |
| 2026-04-23 20:59 | -22.97955 | -43.71956 | 13573 ft | 220 kts | 84° |
| 2026-04-23 20:59 | -22.97752 | -43.70306 | 13575 ft | 220 kts | 84° |
| 2026-04-23 20:59 | -22.97551 | -43.68675 | 13571 ft | 220 kts | 84° |
| 2026-04-23 20:59 | -22.97348 | -43.67028 | 13571 ft | 220 kts | 84° |
| 2026-04-23 21:00 | -22.97145 | -43.65382 | 13572 ft | 220 kts | 84° |
| 2026-04-23 21:00 | -22.96942 | -43.63738 | 13570 ft | 220 kts | 84° |
| 2026-04-23 21:00 | -22.96739 | -43.62092 | 13575 ft | 220 kts | 84° |
| 2026-04-23 21:00 | -22.96536 | -43.60446 | 13576 ft | 220 kts | 84° |
| 2026-04-23 21:01 | -22.96332 | -43.58800 | 13585 ft | 220 kts | 84° |
| 2026-04-23 21:01 | -22.96128 | -43.57152 | 13580 ft | 220 kts | 84° |
| 2026-04-23 21:01 | -22.95924 | -43.55520 | 13589 ft | 219 kts | 84° |
| 2026-04-23 21:01 | -22.95722 | -43.53878 | 13585 ft | 220 kts | 84° |
| 2026-04-23 21:02 | -22.95518 | -43.52235 | 13584 ft | 220 kts | 84° |
| 2026-04-23 21:02 | -22.95314 | -43.50594 | 13592 ft | 220 kts | 84° |
| 2026-04-23 21:02 | -22.95109 | -43.48944 | 13591 ft | 221 kts | 84° |
| 2026-04-23 21:02 | -22.94907 | -43.47314 | 13582 ft | 221 kts | 84° |
| 2026-04-23 21:03 | -22.94700 | -43.45656 | 13584 ft | 221 kts | 84° |
| 2026-04-23 21:03 | -22.94493 | -43.44003 | 13584 ft | 221 kts | 84° |
| 2026-04-23 21:03 | -22.94286 | -43.42351 | 13588 ft | 221 kts | 84° |
| 2026-04-23 21:03 | -22.94080 | -43.40694 | 13583 ft | 222 kts | 84° |
| 2026-04-23 21:04 | -22.93874 | -43.39039 | 13584 ft | 221 kts | 84° |
| 2026-04-23 21:04 | -22.93667 | -43.37387 | 13584 ft | 221 kts | 84° |
| 2026-04-23 21:04 | -22.93459 | -43.35732 | 13586 ft | 221 kts | 84° |
| 2026-04-23 21:04 | -22.93252 | -43.34077 | 13584 ft | 221 kts | 84° |
| 2026-04-23 21:05 | -22.93045 | -43.32425 | 13583 ft | 221 kts | 84° |
| 2026-04-23 21:05 | -22.92836 | -43.30770 | 13581 ft | 220 kts | 84° |
| 2026-04-23 21:05 | -22.92633 | -43.29145 | 13584 ft | 220 kts | 84° |
| 2026-04-23 21:05 | -22.92426 | -43.27501 | 13583 ft | 220 kts | 84° |
| 2026-04-23 21:06 | -22.92220 | -43.25859 | 13583 ft | 220 kts | 84° |
| 2026-04-23 21:06 | -22.92009 | -43.24192 | 13583 ft | 220 kts | 84° |
| 2026-04-23 21:06 | -22.91805 | -43.22566 | 13581 ft | 220 kts | 84° |
| 2026-04-23 21:06 | -22.91597 | -43.20920 | 13579 ft | 220 kts | 84° |
| 2026-04-23 21:07 | -22.91388 | -43.19271 | 13581 ft | 220 kts | 84° |
| 2026-04-23 21:07 | -22.91190 | -43.17702 | 13581 ft | 221 kts | 84° |
| 2026-04-23 21:07 | -22.90982 | -43.16056 | 13582 ft | 221 kts | 84° |
| 2026-04-23 21:07 | -22.90773 | -43.14409 | 13580 ft | 221 kts | 84° |
| 2026-04-23 21:08 | -22.90564 | -43.12761 | 13579 ft | 221 kts | 84° |
| 2026-04-23 21:08 | -22.90364 | -43.11171 | 13570 ft | 189 kts | 84° |
| 2026-04-23 21:08 | -22.90207 | -43.09952 | 13489 ft | 148 kts | 84° |
| 2026-04-23 21:08 | -22.90065 | -43.08876 | 13241 ft | 143 kts | 84° |
| 2026-04-23 21:09 | -22.89919 | -43.07749 | 13003 ft | 160 kts | 84° |
| 2026-04-23 21:09 | -22.89766 | -43.06500 | 12779 ft | 173 kts | 84° |
| 2026-04-23 21:09 | -22.89823 | -43.05203 | 12578 ft | 177 kts | 115° |
| 2026-04-23 21:09 | -22.90734 | -43.04335 | 12401 ft | 184 kts | 161° |
| 2026-04-23 21:10 | -22.92035 | -43.04262 | 12204 ft | 191 kts | 180° |
| 2026-04-23 21:10 | -22.93377 | -43.04361 | 11990 ft | 195 kts | 183° |
| 2026-04-23 21:10 | -22.94733 | -43.04566 | 11779 ft | 198 kts | 186° |
| 2026-04-23 21:10 | -22.96023 | -43.05083 | 11586 ft | 204 kts | 217° |
| 2026-04-23 21:11 | -22.96782 | -43.06383 | 11399 ft | 209 kts | 252° |
| 2026-04-23 21:11 | -22.97084 | -43.07932 | 11193 ft | 211 kts | 259° |
| 2026-04-23 21:11 | -22.97327 | -43.09489 | 10988 ft | 212 kts | 260° |
| 2026-04-23 21:11 | -22.97566 | -43.11078 | 10779 ft | 214 kts | 261° |
| 2026-04-23 21:12 | -22.97593 | -43.12691 | 10580 ft | 214 kts | 277° |
| 2026-04-23 21:12 | -22.97361 | -43.14290 | 10380 ft | 215 kts | 281° |
| 2026-04-23 21:12 | -22.97099 | -43.15893 | 10176 ft | 216 kts | 281° |
| 2026-04-23 21:12 | -22.96836 | -43.17501 | 9969 ft | 217 kts | 281° |
| 2026-04-23 21:13 | -22.96475 | -43.19081 | 9756 ft | 215 kts | 297° |
| 2026-04-23 21:13 | -22.95636 | -43.20400 | 9542 ft | 211 kts | 320° |
| 2026-04-23 21:13 | -22.94494 | -43.21395 | 9321 ft | 210 kts | 327° |
| 2026-04-23 21:13 | -22.93314 | -43.22341 | 9090 ft | 211 kts | 327° |
| 2026-04-23 21:14 | -22.92133 | -43.23277 | 8873 ft | 210 kts | 327° |
| 2026-04-23 21:14 | -22.91352 | -43.23892 | 8725 ft | 209 kts | 327° |
| 2026-04-23 21:14 | -22.89771 | -43.25129 | 8428 ft | 209 kts | 327° |
| 2026-04-23 21:14 | -22.88988 | -43.25738 | 8284 ft | 209 kts | 327° |
| 2026-04-23 21:15 | -22.87808 | -43.26644 | 8068 ft | 207 kts | 331° |
| 2026-04-23 21:15 | -22.86528 | -43.27138 | 7807 ft | 206 kts | 351° |
| 2026-04-23 21:15 | -22.85101 | -43.27417 | 7443 ft | 210 kts | 353° |
| 2026-04-23 21:15 | -22.83652 | -43.27676 | 7065 ft | 212 kts | 353° |
| 2026-04-23 21:16 | -22.82191 | -43.27929 | 6697 ft | 213 kts | 353° |
| 2026-04-23 21:16 | -22.80728 | -43.28161 | 6312 ft | 212 kts | 356° |
| 2026-04-23 21:16 | -22.79266 | -43.28110 | 5924 ft | 210 kts | 13° |
| 2026-04-23 21:16 | -22.78049 | -43.27322 | 5568 ft | 207 kts | 53° |
| 2026-04-23 21:17 | -22.77630 | -43.25913 | 5203 ft | 191 kts | 92° |
| 2026-04-23 21:17 | -22.77817 | -43.24542 | 4821 ft | 179 kts | 100° |
| 2026-04-23 21:17 | -22.78045 | -43.23241 | 4416 ft | 173 kts | 100° |
| 2026-04-23 21:17 | -22.78268 | -43.21988 | 4022 ft | 169 kts | 100° |
| 2026-04-23 21:18 | -22.78484 | -43.20772 | 3630 ft | 160 kts | 100° |
| 2026-04-23 21:18 | -22.78801 | -43.19638 | 3253 ft | 157 kts | 121° |
| 2026-04-23 21:18 | -22.79412 | -43.18685 | 2923 ft | 149 kts | 123° |
| 2026-04-23 21:18 | -22.79994 | -43.17802 | 2638 ft | 138 kts | 134° |
| 2026-04-23 21:19 | -22.80856 | -43.17354 | 2005 ft | 142 kts | 163° |
| 2026-04-23 21:19 | -22.81834 | -43.17171 | 1707 ft | 138 kts | 169° |
| 2026-04-23 21:19 | -22.82778 | -43.17071 | 1555 ft | 137 kts | 171° |
| 2026-04-23 21:19 | -22.83693 | -43.16981 | 1449 ft | 129 kts | 172° |
| 2026-04-23 21:20 | -22.84621 | -43.16944 | 1128 ft | 138 kts | 178° |
| 2026-04-23 21:20 | -22.85586 | -43.16993 | 905 ft | 135 kts | 176° |
| 2026-04-23 21:20 | -22.86465 | -43.16878 | 849 ft | 128 kts | 164° |
| 2026-04-23 21:20 | -22.87382 | -43.16670 | 701 ft | 140 kts | 168° |
| 2026-04-23 21:21 | -22.88252 | -43.16587 | 433 ft | 111 kts | 174° |
| 2026-04-23 21:21 | -22.89041 | -43.16533 | 310 ft | 112 kts | 173° |
| 2026-04-23 21:21 | -22.89787 | -43.16450 | 215 ft | 104 kts | 169° |
| 2026-04-23 21:21 | -22.90493 | -43.16392 | 54 ft | 98 kts | 173° |
| 2026-04-23 21:22 | -22.91066 | -43.16350 | 16 ft | 62 kts | 177° |
| 2026-04-23 21:22 | -22.91311 | -43.16344 | 14 ft | 11 kts | 183° |
| 2026-04-23 21:22 | -22.91333 | -43.16368 | 15 ft | 3 kts | 246° |
| 2026-04-23 21:22 | -22.91347 | -43.16400 | 18 ft | 5 kts | 247° |
| 2026-04-23 21:23 | -22.91346 | -43.16429 | 18 ft | 5 kts | 341° |
| 2026-04-23 21:23 | -22.91300 | -43.16440 | 19 ft | 9 kts | 354° |
| 2026-04-23 21:23 | -22.91232 | -43.16443 | 19 ft | 12 kts | 356° |
| 2026-04-23 21:23 | -22.91139 | -43.16450 | 19 ft | 15 kts | 357° |
| 2026-04-23 21:24 | -22.91020 | -43.16458 | 19 ft | 19 kts | 357° |
| 2026-04-23 21:24 | -22.90961 | -43.16486 | 19 ft | 8 kts | 266° |
| 2026-04-23 21:24 | -22.90950 | -43.16536 | 19 ft | 7 kts | 359° |
| 2026-04-23 21:24 | -22.90882 | -43.16544 | 19 ft | 15 kts | 353° |
| 2026-04-23 21:25 | -22.90749 | -43.16546 | 19 ft | 23 kts | 0° |
| 2026-04-23 21:25 | -22.90610 | -43.16575 | 21 ft | 21 kts | 351° |
| 2026-04-23 21:25 | -22.90512 | -43.16627 | 19 ft | 7 kts | 291° |
| 2026-04-23 21:25 | -22.90511 | -43.16629 | 19 ft | 0 kts | 291° |